createdAt,value
2018-10-06T00:01:28.964Z,7.03
2018-10-06T00:04:03.688Z,8.03
2018-10-06T00:06:38.164Z,7.57
2018-10-06T00:09:12.674Z,7.60
2018-10-06T00:11:47.316Z,8.33
2018-10-06T00:14:21.964Z,7.90
2018-10-06T00:16:56.564Z,7.90
2018-10-06T00:19:31.254Z,7.53
2018-10-06T00:22:05.809Z,8.57
2018-10-06T00:24:40.456Z,8.40
2018-10-06T00:27:15.211Z,8.37
2018-10-06T00:29:49.795Z,8.57
2018-10-06T00:32:24.509Z,8.23
2018-10-06T00:34:59.109Z,8.13
2018-10-06T00:37:33.544Z,8.63
2018-10-06T00:40:08.220Z,8.57
2018-10-06T00:42:42.700Z,8.30
2018-10-06T00:45:17.301Z,8.40
2018-10-06T00:47:52.662Z,8.30
2018-10-06T00:50:27.277Z,8.30
2018-10-06T00:53:01.854Z,8.73
2018-10-06T00:55:36.341Z,8.27
2018-10-06T00:58:11.028Z,8.33
2018-10-06T01:00:45.537Z,8.40
2018-10-06T01:03:20.313Z,8.30
2018-10-06T01:05:55.125Z,8.33
2018-10-06T01:08:29.933Z,8.53
2018-10-06T01:11:04.530Z,8.13
2018-10-06T01:13:39.115Z,8.87
2018-10-06T01:16:13.749Z,8.53
2018-10-06T01:18:48.468Z,7.80
2018-10-06T01:21:23.437Z,8.60
2018-10-06T01:23:58.042Z,8.87
2018-10-06T01:26:33.024Z,8.73
2018-10-06T01:29:07.429Z,8.70
2018-10-06T01:31:42.592Z,8.73
2018-10-06T01:34:17.316Z,8.67
2018-10-06T01:36:51.877Z,9.13
2018-10-06T01:39:26.727Z,9.17
2018-10-06T01:42:01.760Z,8.63
2018-10-06T01:44:36.288Z,9.40
2018-10-06T01:47:10.863Z,9.10
2018-10-06T01:49:45.792Z,8.93
2018-10-06T01:52:20.340Z,8.47
2018-10-06T01:54:55.831Z,9.23
2018-10-06T01:57:31.016Z,8.00
2018-10-06T02:00:06.134Z,8.83
2018-10-06T02:02:41.345Z,8.60
2018-10-06T02:05:15.812Z,9.83
2018-10-06T02:07:50.411Z,8.30
2018-10-06T02:10:24.984Z,8.97
2018-10-06T02:12:59.858Z,8.70
2018-10-06T02:15:38.406Z,9.13
2018-10-06T02:18:13.487Z,8.63
2018-10-06T02:20:48.434Z,8.33
2018-10-06T02:23:23.202Z,8.40
2018-10-06T02:25:58.410Z,8.37
2018-10-06T02:28:33.737Z,8.33
2018-10-06T02:31:08.396Z,8.73
2018-10-06T02:33:43.166Z,8.30
2018-10-06T02:36:17.821Z,8.70
2018-10-06T02:38:52.284Z,8.87
2018-10-06T02:41:27.213Z,9.10
2018-10-06T02:44:02.384Z,8.83
2018-10-06T02:46:37.101Z,8.90
2018-10-06T02:49:12.340Z,9.57
2018-10-06T02:51:46.945Z,9.03
2018-10-06T02:54:21.629Z,9.43
2018-10-06T02:56:56.764Z,9.23
2018-10-06T02:59:31.276Z,9.30
2018-10-06T03:02:05.979Z,8.93
2018-10-06T03:04:40.804Z,8.57
2018-10-06T03:07:15.992Z,9.10
2018-10-06T03:09:50.395Z,8.53
2018-10-06T03:12:25.126Z,8.10
2018-10-06T03:14:59.989Z,9.60
2018-10-06T03:17:34.612Z,8.43
2018-10-06T03:20:09.166Z,8.90
2018-10-06T03:22:43.737Z,7.97
2018-10-06T03:25:18.335Z,8.70
2018-10-06T03:27:53.447Z,9.17
2018-10-06T03:30:28.684Z,8.23
2018-10-06T03:33:03.458Z,8.37
2018-10-06T03:35:38.074Z,8.20
2018-10-06T03:38:13.025Z,8.47
2018-10-06T03:40:47.574Z,8.63
2018-10-06T03:43:22.124Z,8.10
2018-10-06T03:45:57.020Z,8.47
2018-10-06T03:48:31.949Z,7.97
2018-10-06T03:51:06.861Z,8.63
2018-10-06T03:53:41.313Z,8.17
2018-10-06T03:56:15.757Z,7.20
2018-10-06T03:58:50.345Z,8.13
2018-10-06T04:01:24.763Z,7.60
2018-10-06T04:03:59.188Z,7.97
2018-10-06T04:06:33.920Z,8.57
2018-10-06T04:09:08.873Z,7.90
2018-10-06T04:11:43.405Z,7.77
2018-10-06T04:14:17.952Z,8.33
2018-10-06T04:16:52.418Z,8.50
2018-10-06T04:19:27.002Z,8.43
2018-10-06T04:22:01.592Z,7.93
2018-10-06T04:24:36.216Z,8.47
2018-10-06T04:27:10.910Z,8.60
2018-10-06T04:29:45.751Z,7.77
2018-10-06T04:32:20.713Z,7.93
2018-10-06T04:34:55.407Z,7.40
2018-10-06T04:37:30.299Z,8.30
2018-10-06T04:40:04.920Z,7.27
2018-10-06T04:42:40.222Z,7.27
2018-10-06T04:45:14.971Z,7.10
2018-10-06T04:47:49.932Z,7.93
2018-10-06T04:50:25.255Z,7.47
2018-10-06T04:52:59.743Z,7.57
2018-10-06T04:55:34.570Z,8.10
2018-10-06T04:58:09.513Z,7.27
2018-10-06T05:00:44.035Z,7.70
2018-10-06T05:03:18.657Z,6.93
2018-10-06T05:05:53.339Z,7.00
2018-10-06T05:08:28.178Z,7.03
2018-10-06T05:11:03.039Z,6.83
2018-10-06T05:13:37.684Z,7.13
2018-10-06T05:16:12.336Z,7.57
2018-10-06T05:18:47.130Z,7.20
2018-10-06T05:21:21.896Z,7.10
2018-10-06T05:23:56.636Z,6.87
2018-10-06T05:26:31.273Z,7.03
2018-10-06T05:29:06.132Z,7.27
2018-10-06T05:31:40.595Z,8.23
2018-10-06T05:34:15.531Z,6.80
2018-10-06T05:36:50.651Z,6.83
2018-10-06T05:39:25.128Z,6.67
2018-10-06T05:42:00.042Z,7.03
2018-10-06T05:44:34.468Z,6.97
2018-10-06T05:47:09.074Z,6.90
2018-10-06T05:49:43.721Z,6.83
2018-10-06T05:52:18.229Z,6.43
2018-10-06T05:54:52.880Z,5.83
2018-10-06T05:57:27.584Z,6.07
2018-10-06T06:00:02.231Z,6.50
2018-10-06T06:02:36.754Z,6.23
2018-10-06T06:05:14.223Z,6.20
2018-10-06T06:07:48.794Z,6.20
2018-10-06T06:10:45.883Z,7.00
2018-10-06T06:13:20.656Z,5.63
2018-10-06T06:15:55.899Z,6.30
2018-10-06T06:18:37.710Z,7.10
2018-10-06T06:21:12.367Z,5.97
2018-10-06T06:23:47.027Z,5.57
2018-10-06T06:26:21.880Z,6.33
2018-10-06T06:28:56.739Z,5.70
2018-10-06T06:31:31.342Z,6.77
2018-10-06T06:34:05.857Z,5.70
2018-10-06T06:36:40.373Z,5.53
2018-10-06T06:39:18.783Z,5.20
2018-10-06T06:41:59.001Z,5.50
2018-10-06T06:44:33.899Z,5.10
2018-10-06T06:47:08.551Z,5.50
2018-10-06T06:49:43.252Z,5.47
2018-10-06T06:52:18.111Z,5.63
2018-10-06T06:54:52.755Z,5.70
2018-10-06T06:57:27.351Z,5.90
2018-10-06T07:00:02.051Z,5.83
2018-10-06T07:02:36.698Z,5.50
2018-10-06T07:05:12.630Z,5.30
2018-10-06T07:07:47.425Z,4.80
2018-10-06T07:10:22.271Z,4.07
2018-10-06T07:12:56.704Z,4.40
2018-10-06T07:15:31.225Z,4.00
2018-10-06T07:18:05.946Z,4.57
2018-10-06T07:20:40.688Z,4.57
2018-10-06T07:23:15.500Z,4.67
2018-10-06T07:25:50.490Z,4.33
2018-10-06T07:28:25.903Z,4.20
2018-10-06T07:31:00.667Z,4.67
2018-10-06T07:33:35.451Z,4.50
2018-10-06T07:36:10.380Z,4.73
2018-10-06T07:38:45.433Z,4.63
2018-10-06T07:41:20.382Z,4.40
2018-10-06T07:43:55.207Z,5.37
2018-10-06T07:46:29.855Z,4.03
2018-10-06T07:49:04.758Z,4.43
2018-10-06T07:51:39.670Z,4.17
2018-10-06T07:54:14.063Z,4.33
2018-10-06T07:56:48.714Z,4.83
2018-10-06T07:59:27.067Z,4.30
2018-10-06T08:02:01.923Z,4.10
2018-10-06T08:04:36.741Z,4.43
2018-10-06T08:07:11.393Z,4.90
2018-10-06T08:09:46.079Z,5.07
2018-10-06T08:12:21.761Z,4.10
2018-10-06T08:14:56.566Z,4.10
2018-10-06T08:17:32.316Z,4.03
2018-10-06T08:20:07.498Z,4.50
2018-10-06T08:22:53.574Z,4.10
2018-10-06T08:25:35.712Z,4.13
2018-10-06T08:28:11.095Z,3.77
2018-10-06T08:30:45.574Z,4.00
2018-10-06T08:33:20.912Z,4.20
2018-10-06T08:35:55.624Z,4.00
2018-10-06T08:38:30.632Z,3.80
2018-10-06T08:41:05.181Z,4.23
2018-10-06T08:43:39.745Z,3.97
2018-10-06T08:46:14.312Z,3.73
2018-10-06T08:48:49.327Z,4.43
2018-10-06T08:51:23.927Z,4.20
2018-10-06T08:53:58.458Z,4.27
2018-10-06T08:56:33.222Z,3.73
2018-10-06T08:59:07.824Z,3.73
2018-10-06T09:01:42.264Z,4.30
2018-10-06T09:04:16.747Z,3.50
2018-10-06T09:06:51.765Z,4.00
2018-10-06T09:09:26.286Z,3.93
2018-10-06T09:12:00.793Z,3.93
2018-10-06T09:14:35.716Z,3.57
2018-10-06T09:17:10.501Z,3.67
2018-10-06T09:19:45.853Z,3.60
2018-10-06T09:22:20.496Z,3.60
2018-10-06T09:24:55.024Z,3.73
2018-10-06T09:27:29.741Z,3.77
2018-10-06T09:30:04.426Z,3.90
2018-10-06T09:32:39.035Z,4.20
2018-10-06T09:35:13.628Z,3.87
2018-10-06T09:37:48.144Z,3.90
2018-10-06T09:40:23.040Z,3.70
2018-10-06T09:42:57.732Z,3.97
2018-10-06T09:45:32.330Z,3.47
2018-10-06T09:48:06.929Z,4.30
2018-10-06T09:50:41.711Z,4.10
2018-10-06T09:53:16.330Z,4.13
2018-10-06T09:55:50.877Z,3.97
2018-10-06T09:58:25.869Z,4.00
2018-10-06T10:01:06.306Z,3.80
2018-10-06T10:03:46.096Z,4.40
2018-10-06T10:06:20.708Z,3.83
2018-10-06T10:08:55.184Z,3.60
2018-10-06T10:11:32.094Z,3.77
2018-10-06T10:14:06.998Z,3.10
2018-10-06T10:16:41.531Z,3.93
2018-10-06T10:19:16.228Z,3.57
2018-10-06T10:21:51.470Z,3.47
2018-10-06T10:24:25.805Z,3.63
2018-10-06T10:27:00.661Z,2.87
2018-10-06T10:29:35.227Z,3.40
2018-10-06T10:32:09.961Z,3.43
2018-10-06T10:34:44.605Z,3.43
2018-10-06T10:37:19.381Z,3.03
2018-10-06T10:39:53.754Z,3.33
2018-10-06T10:42:28.485Z,3.20
2018-10-06T10:45:03.068Z,2.87
2018-10-06T10:47:37.564Z,3.40
2018-10-06T10:50:12.543Z,3.33
2018-10-06T10:52:47.044Z,3.27
2018-10-06T10:55:21.824Z,3.30
2018-10-06T10:57:56.383Z,3.33
2018-10-06T11:00:30.848Z,3.03
2018-10-06T11:03:05.493Z,2.90
2018-10-06T11:05:40.284Z,3.00
2018-10-06T11:08:14.668Z,3.50
2018-10-06T11:10:50.990Z,3.10
2018-10-06T11:13:25.983Z,2.80
2018-10-06T11:16:03.986Z,3.03
2018-10-06T11:18:38.821Z,2.77
2018-10-06T11:21:13.634Z,3.30
2018-10-06T11:23:48.772Z,3.13
2018-10-06T11:26:23.225Z,2.90
2018-10-06T11:28:57.745Z,3.00
2018-10-06T11:31:32.992Z,2.90
2018-10-06T11:34:08.777Z,2.87
2018-10-06T11:36:43.648Z,3.13
2018-10-06T11:39:18.232Z,2.63
2018-10-06T11:41:53.104Z,3.03
2018-10-06T11:44:27.768Z,2.63
2018-10-06T11:47:02.335Z,2.80
2018-10-06T11:49:36.860Z,2.70
2018-10-06T11:52:11.344Z,2.83
2018-10-06T11:54:45.956Z,3.23
2018-10-06T11:57:20.744Z,3.00
2018-10-06T11:59:55.595Z,2.80
2018-10-06T12:02:34.637Z,2.60
2018-10-06T12:05:15.453Z,2.90
2018-10-06T12:07:50.229Z,2.70
2018-10-06T12:10:24.717Z,3.00
2018-10-06T12:13:00.388Z,2.57
2018-10-06T12:15:35.313Z,2.77
2018-10-06T12:18:09.947Z,2.77
2018-10-06T12:20:44.462Z,2.70
2018-10-06T12:23:19.181Z,2.70
2018-10-06T12:25:53.727Z,2.77
2018-10-06T12:28:28.260Z,2.80
2018-10-06T12:31:02.960Z,2.90
2018-10-06T12:33:37.873Z,3.17
2018-10-06T12:36:12.522Z,2.60
2018-10-06T12:38:47.136Z,3.60
2018-10-06T12:41:21.909Z,2.87
2018-10-06T12:43:56.403Z,3.00
2018-10-06T12:46:30.766Z,3.07
2018-10-06T12:49:05.610Z,2.50
2018-10-06T12:51:40.519Z,2.50
2018-10-06T12:54:15.552Z,2.80
2018-10-06T12:56:50.262Z,2.57
2018-10-06T12:59:24.916Z,3.10
2018-10-06T13:01:59.519Z,2.93
2018-10-06T13:04:34.413Z,2.27
2018-10-06T13:07:09.037Z,2.40
2018-10-06T13:09:43.864Z,2.77
2018-10-06T13:12:18.546Z,2.73
2018-10-06T13:14:53.425Z,2.50
2018-10-06T13:17:28.631Z,2.77
2018-10-06T13:20:03.630Z,2.70
2018-10-06T13:22:38.141Z,2.60
2018-10-06T13:25:13.021Z,2.83
2018-10-06T13:27:47.563Z,2.77
2018-10-06T13:30:22.497Z,2.37
2018-10-06T13:32:57.446Z,2.80
2018-10-06T13:35:32.604Z,2.60
2018-10-06T13:38:07.616Z,2.40
2018-10-06T13:40:42.032Z,2.13
2018-10-06T13:43:16.663Z,2.37
2018-10-06T13:45:51.228Z,2.63
2018-10-06T13:48:26.639Z,2.30
2018-10-06T13:51:01.270Z,2.00
2018-10-06T13:53:35.639Z,2.53
2018-10-06T13:56:10.767Z,3.03
2018-10-06T13:58:45.293Z,2.50
2018-10-06T14:01:20.012Z,3.00
2018-10-06T14:03:54.890Z,2.97
2018-10-06T14:06:29.738Z,2.93
2018-10-06T14:09:04.800Z,2.43
2018-10-06T14:11:39.208Z,2.00
2018-10-06T14:14:13.598Z,2.57
2018-10-06T14:16:48.193Z,2.43
2018-10-06T14:19:23.044Z,2.60
2018-10-06T14:21:57.672Z,2.57
2018-10-06T14:24:32.301Z,2.00
2018-10-06T14:27:07.193Z,2.40
2018-10-06T14:29:41.813Z,2.50
2018-10-06T14:32:16.443Z,2.43
2018-10-06T14:34:51.076Z,2.40
2018-10-06T14:37:25.472Z,2.33
2018-10-06T14:40:00.298Z,2.50
2018-10-06T14:42:34.748Z,2.50
2018-10-06T14:45:09.186Z,2.50
2018-10-06T14:47:43.750Z,2.30
2018-10-06T14:50:18.294Z,2.20
2018-10-06T14:52:53.196Z,2.43
2018-10-06T14:55:31.242Z,2.10
2018-10-06T14:58:06.028Z,2.20
2018-10-06T15:00:41.624Z,2.27
2018-10-06T15:03:16.833Z,2.30
2018-10-06T15:05:51.376Z,2.33
2018-10-06T15:08:26.852Z,2.70
2018-10-06T15:11:01.323Z,2.30
2018-10-06T15:13:35.925Z,2.70
2018-10-06T15:16:10.904Z,2.20
2018-10-06T15:18:45.797Z,2.10
2018-10-06T15:21:20.437Z,2.43
2018-10-06T15:23:54.946Z,2.30
2018-10-06T15:26:29.533Z,2.93
2018-10-06T15:29:04.200Z,2.43
2018-10-06T15:31:39.040Z,2.60
2018-10-06T15:34:13.575Z,2.33
2018-10-06T15:36:48.207Z,2.60
2018-10-06T15:39:22.724Z,2.63
2018-10-06T15:41:57.276Z,2.57
2018-10-06T15:44:32.167Z,2.40
2018-10-06T15:47:06.625Z,2.50
2018-10-06T15:49:41.097Z,2.60
2018-10-06T15:52:15.946Z,2.60
2018-10-06T15:57:47.368Z,2.33
2018-10-06T16:03:21.940Z,2.10
2018-10-06T16:05:56.588Z,2.40
2018-10-06T16:08:31.093Z,2.97
2018-10-06T16:11:05.528Z,2.67
2018-10-06T16:13:40.141Z,2.37
2018-10-06T16:16:14.560Z,2.23
2018-10-06T16:19:03.964Z,2.40
2018-10-06T16:21:38.661Z,2.47
2018-10-06T16:24:13.141Z,2.70
2018-10-06T16:26:47.758Z,2.35
2018-10-06T16:29:22.400Z,3.00
2018-10-06T16:31:56.969Z,2.27
2018-10-06T16:34:37.020Z,2.40
2018-10-06T16:37:11.920Z,2.83
2018-10-06T16:39:46.770Z,3.40
2018-10-06T16:42:21.264Z,3.53
2018-10-06T16:44:55.916Z,2.93
2018-10-06T16:47:30.527Z,3.67
2018-10-06T16:50:05.084Z,4.37
2018-10-06T16:52:39.733Z,66.93
2018-10-06T16:55:14.324Z,3.70
2018-10-06T16:57:48.808Z,3.20
2018-10-06T17:00:24.093Z,3.97
2018-10-06T17:02:58.609Z,3.83
2018-10-06T17:05:33.205Z,3.20
2018-10-06T17:08:08.399Z,3.83
2018-10-06T17:10:42.867Z,3.90
2018-10-06T17:13:17.452Z,3.93
2018-10-06T17:15:52.713Z,4.20
2018-10-06T17:18:27.363Z,4.17
2018-10-06T17:21:01.964Z,35.10
2018-10-06T17:23:36.525Z,46.63
2018-10-06T17:26:11.006Z,95.20
2018-10-06T17:28:46.169Z,8.13
2018-10-06T17:31:20.652Z,3.43
2018-10-06T17:33:55.358Z,6.23
2018-10-06T17:36:31.220Z,3.23
2018-10-06T17:39:07.825Z,3.03
2018-10-06T17:41:42.579Z,3.43
2018-10-06T17:44:23.018Z,3.70
2018-10-06T17:46:57.752Z,3.87
2018-10-06T17:49:32.932Z,6.63
2018-10-06T17:52:08.200Z,4.63
2018-10-06T17:54:42.968Z,3.73
2018-10-06T17:57:17.576Z,4.20
2018-10-06T17:59:52.285Z,3.80
2018-10-06T18:02:27.090Z,4.07
2018-10-06T18:05:01.721Z,3.30
2018-10-06T18:07:36.393Z,3.77
2018-10-06T18:10:11.164Z,3.90
2018-10-06T18:12:46.215Z,4.30
2018-10-06T18:15:20.750Z,4.97
2018-10-06T18:17:55.704Z,4.87
2018-10-06T18:20:30.483Z,6.23
2018-10-06T18:23:04.832Z,4.93
2018-10-06T18:25:39.680Z,5.57
2018-10-06T18:28:14.753Z,4.93
2018-10-06T18:30:49.293Z,4.50
2018-10-06T18:33:23.946Z,5.50
2018-10-06T18:35:58.470Z,6.50
2018-10-06T18:38:33.169Z,5.93
2018-10-06T18:44:17.180Z,4.87
2018-10-06T18:46:51.772Z,4.93
2018-10-06T18:49:26.456Z,6.00
2018-10-06T18:52:00.885Z,6.47
2018-10-06T18:54:35.429Z,5.83
2018-10-06T18:57:09.870Z,7.57
2018-10-06T18:59:44.516Z,6.43
2018-10-06T19:02:19.132Z,6.20
2018-10-06T19:04:54.074Z,6.67
2018-10-06T19:07:28.764Z,6.17
2018-10-06T19:10:03.335Z,6.53
2018-10-06T19:12:37.924Z,6.03
2018-10-06T19:15:12.473Z,7.00
2018-10-06T19:17:47.053Z,5.13
2018-10-06T19:20:21.562Z,5.20
2018-10-06T19:22:56.259Z,5.77
2018-10-06T19:25:30.928Z,5.73
2018-10-06T19:28:05.473Z,5.50
2018-10-06T19:30:40.151Z,5.93
2018-10-06T19:33:14.808Z,6.03
2018-10-06T19:35:49.484Z,6.37
2018-10-06T19:38:24.225Z,6.40
2018-10-06T19:40:59.039Z,6.07
2018-10-06T19:43:34.012Z,7.40
2018-10-06T19:46:08.645Z,6.33
2018-10-06T19:48:43.109Z,5.80
2018-10-06T19:51:17.656Z,6.80
2018-10-06T19:53:52.398Z,5.87
2018-10-06T19:56:27.040Z,6.13
2018-10-06T19:59:01.708Z,6.13
2018-10-06T20:01:36.405Z,6.23
2018-10-06T20:04:10.935Z,5.40
2018-10-06T20:06:45.521Z,5.73
2018-10-06T20:09:20.053Z,5.43
2018-10-06T20:11:54.726Z,5.77
2018-10-06T20:14:29.241Z,6.20
2018-10-06T20:17:03.674Z,6.07
2018-10-06T20:19:38.667Z,5.67
2018-10-06T20:22:13.424Z,6.47
2018-10-06T20:24:48.388Z,6.00
2018-10-06T20:27:22.952Z,5.50
2018-10-06T20:29:57.677Z,5.60
2018-10-06T20:32:32.598Z,6.50
2018-10-06T20:35:07.270Z,6.33
2018-10-06T20:37:41.913Z,6.50
2018-10-06T20:40:16.896Z,6.23
2018-10-06T20:42:51.368Z,6.33
2018-10-06T20:45:26.104Z,7.63
2018-10-06T20:48:00.802Z,7.20
2018-10-06T20:50:35.407Z,7.07
2018-10-06T20:53:09.986Z,6.43
2018-10-06T20:55:44.835Z,6.40
2018-10-06T20:58:19.504Z,6.60
2018-10-06T21:00:54.149Z,6.43
2018-10-06T21:03:28.712Z,6.07
2018-10-06T21:06:04.089Z,6.20
2018-10-06T21:08:38.984Z,7.10
2018-10-06T21:11:14.018Z,5.97
2018-10-06T21:14:02.490Z,6.73
2018-10-06T21:16:37.707Z,7.43
2018-10-06T21:19:12.348Z,6.57
2018-10-06T21:21:47.052Z,7.53
2018-10-06T21:24:21.673Z,7.70
2018-10-06T21:26:56.117Z,7.50
2018-10-06T21:29:30.857Z,7.00
2018-10-06T21:32:05.329Z,7.17
2018-10-06T21:34:40.373Z,6.97
2018-10-06T21:37:27.959Z,7.20
2018-10-06T21:40:02.554Z,6.57
2018-10-06T21:42:46.663Z,7.13
2018-10-06T21:45:21.164Z,6.87
2018-10-06T21:48:02.336Z,7.00
2018-10-06T21:50:50.806Z,6.97
2018-10-06T21:53:25.477Z,8.10
2018-10-06T21:56:00.023Z,8.30
2018-10-06T21:58:34.456Z,7.90
2018-10-06T22:01:11.665Z,8.17
2018-10-06T22:03:46.789Z,6.27
2018-10-06T22:06:22.688Z,6.80
2018-10-06T22:08:57.659Z,7.37
2018-10-06T22:11:32.392Z,6.77
2018-10-06T22:14:06.931Z,7.23
2018-10-06T22:16:41.728Z,7.10
2018-10-06T22:19:17.139Z,7.27
2018-10-06T22:21:51.765Z,7.13
2018-10-06T22:24:26.510Z,6.77
2018-10-06T22:27:01.398Z,7.00
2018-10-06T22:29:36.167Z,6.43
2018-10-06T22:35:10.919Z,7.17
2018-10-06T22:37:45.861Z,8.00
2018-10-06T22:40:20.347Z,8.60
2018-10-06T22:42:55.092Z,9.23
2018-10-06T22:45:39.410Z,14.30
2018-10-06T22:48:14.755Z,14.20
2018-10-06T22:50:49.214Z,15.43
2018-10-06T22:53:23.755Z,16.57
2018-10-06T22:55:58.232Z,17.60
2018-10-06T22:58:32.783Z,22.33
2018-10-06T23:01:07.415Z,24.00
2018-10-06T23:03:42.014Z,25.93
2018-10-06T23:06:16.778Z,26.40
2018-10-06T23:08:51.479Z,24.37
2018-10-06T23:11:25.962Z,26.30
2018-10-06T23:14:00.451Z,27.47
2018-10-06T23:16:35.361Z,28.37
2018-10-06T23:19:10.013Z,29.03
2018-10-06T23:21:44.720Z,29.47
2018-10-06T23:24:19.428Z,28.13
2018-10-06T23:26:54.216Z,28.13
2018-10-06T23:29:29.958Z,30.27
2018-10-06T23:32:05.026Z,28.93
2018-10-06T23:34:39.704Z,29.10
2018-10-06T23:37:14.495Z,29.27
2018-10-06T23:39:49.135Z,29.57
2018-10-06T23:42:23.823Z,29.97
2018-10-06T23:45:17.548Z,29.27
2018-10-06T23:50:58.388Z,27.03
2018-10-06T23:53:32.993Z,29.27
2018-10-06T23:56:07.664Z,29.30
2018-10-06T23:58:42.154Z,28.83
